Time;durP1;ratioP1;P1;durP2;ratioP2;P2;SDS_P1;SDS_P2;PMS_P1;PMS_P2;Temp;Humidity;BMP_temperature;BMP_pressure;BME280_temperature;BME280_humidity;BME280_pressure;Samples;Min_cycle;Max_cycle;Signal;HPM_P1;HPM_P2
2022/10/27 00:01:36;;;;;;;3.63;3.28;;;;;;;12.32;96.05;100550.16;5095827;28;20398;-69
2022/10/27 00:04:06;;;;;;;3.30;2.63;;;;;;;12.32;96.12;100553.59;5095843;28;20044;-69
2022/10/27 00:06:34;;;;;;;2.80;2.60;;;;;;;12.35;96.10;100550.19;5096057;28;20044;-69
2022/10/27 00:09:04;;;;;;;4.45;2.78;;;;;;;12.32;95.96;100551.03;5096039;28;20401;-69
2022/10/27 00:11:32;;;;;;;2.92;1.90;;;;;;;12.30;96.04;100557.00;5095661;28;20135;-69
2022/10/27 00:14:01;;;;;;;3.58;2.58;;;;;;;12.32;96.21;100550.16;5095582;28;20043;-69
2022/10/27 00:16:30;;;;;;;4.75;3.17;;;;;;;12.31;96.44;100558.72;5095874;28;20397;-69
2022/10/27 00:18:59;;;;;;;3.03;2.72;;;;;;;12.32;96.43;100555.28;5095846;28;20086;-69
2022/10/27 00:21:29;;;;;;;5.70;3.95;;;;;;;12.33;96.41;100562.13;5095464;28;20139;-69
2022/10/27 00:23:57;;;;;;;3.90;2.97;;;;;;;12.34;96.40;100568.94;5095444;28;20524;-69
2022/10/27 00:26:26;;;;;;;2.17;1.95;;;;;;;12.31;96.47;100568.94;5095971;28;20044;-69
2022/10/27 00:28:55;;;;;;;3.40;3.08;;;;;;;12.30;96.40;100567.22;5095270;28;20043;-69
2022/10/27 00:31:24;;;;;;;8.02;3.13;;;;;;;12.31;96.34;100572.34;5095593;28;20036;-69
2022/10/27 00:33:52;;;;;;;3.47;2.38;;;;;;;12.32;96.60;100568.94;5095834;28;20143;-69
2022/10/27 00:36:23;;;;;;;5.22;2.65;;;;;;;12.34;96.40;100566.38;5095217;28;20048;-69
2022/10/27 00:38:55;;;;;;;1.73;1.63;;;;;;;12.31;96.47;100569.78;5095468;28;20109;-69
2022/10/27 00:41:28;;;;;;;1.77;1.55;;;;;;;12.33;96.60;100569.81;5095144;28;20056;-69
2022/10/27 00:43:57;;;;;;;3.40;2.35;;;;;;;12.36;96.71;100577.50;5095048;28;20130;-69
2022/10/27 00:46:34;;;;;;;4.47;3.17;;;;;;;12.38;96.58;100580.94;5094993;28;20069;-70
2022/10/27 00:49:07;;;;;;;2.38;1.77;;;;;;;12.40;96.65;100584.38;5095243;28;20043;-70
2022/10/27 00:51:39;;;;;;;3.40;2.40;;;;;;;12.41;96.52;100586.06;5094951;28;20146;-70
2022/10/27 00:54:10;;;;;;;1.73;1.63;;;;;;;12.41;96.77;100581.81;5095325;28;20066;-69
2022/10/27 00:56:40;;;;;;;3.22;2.92;;;;;;;12.42;96.45;100586.09;5094901;28;20055;-69
2022/10/27 00:59:08;;;;;;;1.88;1.48;;;;;;;12.42;96.43;100577.53;5094779;28;20522;-69
2022/10/27 01:01:38;;;;;;;1.83;1.67;;;;;;;12.44;96.43;100586.94;5093949;28;20505;-69
2022/10/27 01:04:07;;;;;;;;;;;;;;;12.45;96.50;100582.69;5095280;28;20050;-69
2022/10/27 01:06:36;;;;;;;2.05;1.67;;;;;;;12.46;96.30;100585.25;5094612;28;19919;-69
2022/10/27 01:09:06;;;;;;;4.53;3.25;;;;;;;12.48;96.52;100577.56;5094440;28;20043;-69
2022/10/27 01:11:36;;;;;;;2.15;1.95;;;;;;;12.48;96.42;100582.69;5095145;28;20043;-69
2022/10/27 01:14:05;;;;;;;7.28;3.03;;;;;;;12.46;96.21;100584.38;5093559;28;20040;-69
2022/10/27 01:16:43;;;;;;;2.28;2.05;;;;;;;12.44;96.14;100580.97;5094424;28;20047;-69
2022/10/27 01:19:34;;;;;;;2.13;1.92;;;;;;;12.45;96.10;100592.94;5094737;28;20048;-69
2022/10/27 01:22:13;;;;;;;4.35;2.13;;;;;;;12.46;95.99;100584.38;5094381;28;20044;-69
2022/10/27 01:24:55;;;;;;;1.65;1.42;;;;;;;12.46;96.21;100586.94;5094294;28;20044;-69
2022/10/27 01:27:50;;;;;;;2.53;2.33;;;;;;;12.42;96.03;100583.53;5094183;28;20105;-69
2022/10/27 01:30:21;;;;;;;3.38;2.25;;;;;;;12.43;95.86;100579.28;5092997;28;20124;-69
2022/10/27 01:32:59;;;;;;;2.90;1.45;;;;;;;12.44;95.65;100591.22;5094755;28;20117;-69
2022/10/27 01:35:35;;;;;;;3.65;2.17;;;;;;;12.43;95.96;100580.09;5094108;28;20044;-69
2022/10/27 01:38:16;;;;;;;2.03;1.88;;;;;;;12.45;95.84;100575.00;5094104;28;20036;-69
2022/10/27 01:40:50;;;;;;;5.15;3.00;;;;;;;12.46;95.70;100579.25;5094366;28;20047;-69
2022/10/27 01:43:24;;;;;;;3.78;2.83;;;;;;;12.41;95.80;100565.59;5094314;28;20044;-69
2022/10/27 01:45:56;;;;;;;1.85;1.65;;;;;;;12.48;95.70;100582.69;5110105;28;20466;-69
2022/10/27 01:48:26;;;;;;;6.60;3.38;;;;;;;12.45;95.90;100572.44;5093864;28;20504;-69
2022/10/27 01:50:55;;;;;;;4.45;2.50;;;;;;;12.56;95.87;100581.03;5093891;28;20062;-69
2022/10/27 01:53:33;;;;;;;1.90;1.75;;;;;;;12.58;95.89;100581.91;5094201;28;20051;-69
2022/10/27 01:56:17;;;;;;;5.50;4.40;;;;;;;12.58;95.78;100576.78;5092897;28;20056;-69
2022/10/27 01:59:03;;;;;;;2.47;2.28;;;;;;;12.54;95.33;100582.75;5093565;28;20036;-69
2022/10/27 02:01:44;;;;;;;3.22;2.92;;;;;;;12.52;95.55;100587.00;5094269;28;20100;-69
2022/10/27 02:04:22;;;;;;;3.60;2.22;;;;;;;12.50;95.50;100578.47;5093756;28;20060;-69
2022/10/27 02:06:57;;;;;;;4.88;3.80;;;;;;;12.53;95.42;100575.91;5093691;28;20052;-69
2022/10/27 02:09:34;;;;;;;5.63;2.60;;;;;;;12.54;95.26;100570.81;5093860;28;20047;-69
2022/10/27 02:12:08;;;;;;;5.60;3.75;;;;;;;12.58;95.35;100576.78;5093727;28;20072;-69
2022/10/27 02:14:37;;;;;;;2.67;1.98;;;;;;;12.60;95.57;100577.63;5093865;28;20069;-69
2022/10/27 02:17:08;;;;;;;4.38;3.45;;;;;;;12.56;95.17;100581.03;5094051;28;20048;-69
2022/10/27 02:19:40;;;;;;;4.95;2.25;;;;;;;12.57;95.38;100590.44;5093668;28;20044;-69
2022/10/27 02:22:11;;;;;;;1.38;1.27;;;;;;;12.53;95.30;100579.31;5093604;28;20047;-69
2022/10/27 02:24:40;;;;;;;6.07;3.78;;;;;;;12.55;95.29;100589.56;5093561;28;20044;-70
2022/10/27 02:27:13;;;;;;;6.72;2.95;;;;;;;12.54;95.04;100590.44;5092221;28;20048;-69
2022/10/27 02:29:45;;;;;;;2.53;2.33;;;;;;;12.52;95.22;100589.56;5093760;28;20417;-69
2022/10/27 02:32:18;;;;;;;22.20;2.38;;;;;;;12.50;95.24;100586.16;5093831;28;20117;-69
2022/10/27 02:34:50;;;;;;;3.20;2.17;;;;;;;12.51;95.32;100582.72;5093789;28;20119;-70
2022/10/27 02:37:21;;;;;;;3.58;2.60;;;;;;;12.52;95.16;100589.56;5093972;28;20064;-69
2022/10/27 02:39:50;;;;;;;7.35;3.65;;;;;;;12.54;95.03;100595.53;5093680;28;20047;-69
2022/10/27 02:42:19;;;;;;;8.63;2.92;;;;;;;12.56;95.40;100591.28;5094203;28;20474;-69
2022/10/27 02:44:47;;;;;;;7.00;3.08;;;;;;;12.55;95.37;100590.41;5093648;28;20070;-69
2022/10/27 02:47:16;;;;;;;5.65;3.85;;;;;;;12.55;95.08;100589.56;5093564;28;20040;-69
2022/10/27 02:49:44;;;;;;;3.83;3.53;;;;;;;12.56;95.17;100601.53;5093156;28;20139;-69
2022/10/27 02:52:14;;;;;;;6.07;3.97;;;;;;;12.55;95.18;100604.91;5093220;28;20040;-70
2022/10/27 02:54:46;;;;;;;8.50;4.80;;;;;;;12.54;95.38;100604.09;5093547;28;20382;-69
2022/10/27 02:57:16;;;;;;;4.57;2.65;;;;;;;12.53;95.32;100601.50;5093175;28;20056;-69
2022/10/27 02:59:45;;;;;;;3.92;3.13;;;;;;;12.55;95.00;100607.47;5093490;28;20044;-69
2022/10/27 03:02:21;;;;;;;2.47;2.28;;;;;;;12.56;95.47;100616.91;5093526;28;20055;-69
2022/10/27 03:04:51;;;;;;;6.85;3.65;;;;;;;12.56;95.46;100612.63;5093197;28;20105;-69
2022/10/27 03:07:21;;;;;;;4.35;3.13;;;;;;;12.52;95.12;100610.91;5092216;28;20032;-69
2022/10/27 03:09:50;;;;;;;3.00;2.42;;;;;;;12.53;95.19;100611.75;5093897;28;20439;-69
2022/10/27 03:12:18;;;;;;;5.68;3.67;;;;;;;12.52;95.25;100616.03;5093360;28;20037;-69
2022/10/27 03:14:47;;;;;;;3.97;2.92;;;;;;;12.51;95.15;100618.56;5093357;28;20134;-69
2022/10/27 03:17:16;;;;;;;4.38;2.88;;;;;;;12.50;95.22;100627.13;5093273;28;20482;-69
2022/10/27 03:19:44;;;;;;;3.35;2.95;;;;;;;12.51;95.30;100633.94;5093319;28;20040;-69
2022/10/27 03:22:13;;;;;;;4.53;4.10;;;;;;;12.48;95.57;100623.66;5093230;28;20405;-69
2022/10/27 03:24:43;;;;;;;5.88;4.00;;;;;;;12.50;95.54;100632.25;5094568;28;20079;-69
2022/10/27 03:27:11;;;;;;;4.53;3.63;;;;;;;12.46;95.68;100630.47;5096824;28;20162;-69
2022/10/27 03:29:40;;;;;;;5.70;4.15;;;;;;;12.45;95.32;100632.19;5096696;28;20398;-69
2022/10/27 03:32:09;;;;;;;4.90;3.27;;;;;;;12.41;95.61;100627.03;5096403;28;20066;-69
2022/10/27 03:34:37;;;;;;;4.28;3.88;;;;;;;12.39;95.64;100623.59;5096679;28;20044;-69
2022/10/27 03:37:06;;;;;;;8.40;4.80;;;;;;;12.42;95.80;100621.06;5096362;28;20032;-69
2022/10/27 03:39:34;;;;;;;3.95;3.00;;;;;;;12.40;95.79;100626.19;5096496;28;20441;-69
2022/10/27 03:42:05;;;;;;;6.78;3.22;;;;;;;12.43;95.88;100625.34;5096262;28;20052;-69
2022/10/27 03:44:33;;;;;;;8.10;3.53;;;;;;;12.46;95.83;100630.47;5096511;28;20493;-69
2022/10/27 03:47:02;;;;;;;5.53;3.13;;;;;;;12.44;95.68;100627.91;5096133;28;20048;-70
2022/10/27 03:49:31;;;;;;;3.65;2.28;;;;;;;12.41;95.72;100627.03;5096240;28;20061;-69
2022/10/27 03:51:59;;;;;;;14.15;4.93;;;;;;;12.40;95.64;100635.56;5096035;28;20047;-69
2022/10/27 03:54:30;;;;;;;11.23;3.30;;;;;;;12.36;96.11;100621.00;5095869;28;20135;-69
2022/10/27 03:56:59;;;;;;;5.90;2.50;;;;;;;12.36;95.85;100618.44;5096310;28;20511;-69
2022/10/27 03:59:28;;;;;;;4.03;3.40;;;;;;;12.43;96.13;100630.47;5095790;28;20048;-69
2022/10/27 04:01:57;;;;;;;6.95;3.47;;;;;;;12.46;96.06;100635.59;5095903;28;20566;-69
2022/10/27 04:04:30;;;;;;;7.00;4.13;;;;;;;12.48;96.01;100634.75;5095870;28;20059;-69
2022/10/27 04:06:59;;;;;;;2.17;2.05;;;;;;;12.38;96.24;100617.63;5095766;28;20043;-70
2022/10/27 04:09:28;;;;;;;2.10;1.90;;;;;;;12.41;96.14;100627.03;5095932;28;20113;-69
2022/10/27 04:11:56;;;;;;;12.45;2.75;;;;;;;12.44;96.35;100627.06;5096009;28;20044;-69
2022/10/27 04:14:25;;;;;;;4.20;3.80;;;;;;;12.46;96.17;100630.47;5095636;28;20090;-69
2022/10/27 04:16:55;;;;;;;6.13;2.95;;;;;;;12.41;96.42;100627.03;5096193;28;20370;-69
2022/10/27 04:19:24;;;;;;;9.98;3.00;;;;;;;12.45;96.35;100637.28;5095477;28;20574;-69
2022/10/27 04:21:52;;;;;;;5.28;4.25;;;;;;;12.47;96.15;100627.94;5094305;28;20040;-69
2022/10/27 04:24:21;;;;;;;3.10;2.80;;;;;;;12.48;96.35;100636.47;5095470;28;20076;-69
2022/10/27 04:26:49;;;;;;;4.35;3.10;;;;;;;12.45;96.64;100637.28;5095386;28;20800;-69
2022/10/27 04:29:18;;;;;;;9.10;5.55;;;;;;;12.45;96.31;100639.03;5095210;28;20074;-69
2022/10/27 04:31:46;;;;;;;13.93;4.78;;;;;;;12.43;96.72;100641.56;5095409;28;20492;-69
2022/10/27 04:34:17;;;;;;;2.03;1.67;;;;;;;12.42;96.62;100647.53;5095223;28;20043;-69
2022/10/27 04:36:45;;;;;;;4.75;3.60;;;;;;;12.40;96.72;100645.81;5095167;28;20101;-69
2022/10/27 04:39:14;;;;;;;4.35;2.63;;;;;;;12.43;96.69;100641.56;5095328;28;20036;-69
2022/10/27 04:41:43;;;;;;;7.05;3.45;;;;;;;12.34;96.49;100632.94;5094261;28;20191;-69
2022/10/27 04:44:11;;;;;;;6.90;5.13;;;;;;;12.41;96.90;100655.19;5095091;28;20040;-69
2022/10/27 04:46:40;;;;;;;4.07;3.67;;;;;;;12.42;96.75;100654.34;5095015;28;20100;-69
2022/10/27 04:49:08;;;;;;;5.88;3.85;;;;;;;12.42;96.91;100657.78;5094863;28;20090;-69
2022/10/27 04:51:39;;;;;;;2.20;1.98;;;;;;;12.43;96.71;100661.22;5094885;28;20127;-69
2022/10/27 04:54:08;;;;;;;3.80;3.17;;;;;;;12.44;96.76;100662.91;5111417;28;20036;-69
2022/10/27 04:56:36;;;;;;;5.15;4.28;;;;;;;12.42;96.97;100662.91;5095275;28;20109;-69
2022/10/27 04:59:05;;;;;;;4.78;4.38;;;;;;;12.47;96.90;100673.19;5094525;28;20063;-69
2022/10/27 05:01:34;;;;;;;4.60;3.75;;;;;;;12.44;96.84;100665.47;5094906;28;20032;-69
2022/10/27 05:04:03;;;;;;;6.97;3.40;;;;;;;12.42;96.48;100669.72;5094639;28;20081;-69
2022/10/27 05:06:31;;;;;;;5.82;2.92;;;;;;;12.44;97.09;100676.56;5094935;28;20044;-68
2022/10/27 05:09:01;;;;;;;5.28;2.33;;;;;;;12.43;97.09;100667.16;5094536;28;20532;-69
2022/10/27 05:11:30;;;;;;;3.90;3.60;;;;;;;12.45;96.79;100669.75;5094464;28;20044;-69
2022/10/27 05:13:59;;;;;;;6.00;4.03;;;;;;;12.47;97.23;100673.19;5094448;28;20093;-69
2022/10/27 05:16:28;;;;;;;4.50;2.85;;;;;;;12.50;96.84;100678.31;5094464;28;20101;-69
2022/10/27 05:18:57;;;;;;;4.00;2.67;;;;;;;12.48;97.02;100680.00;5094720;28;20397;-69
2022/10/27 05:21:25;;;;;;;9.75;2.95;;;;;;;12.47;97.22;100683.41;5094810;28;20039;-69
2022/10/27 05:23:54;;;;;;;5.05;3.33;;;;;;;12.45;97.04;100685.13;5094871;28;20036;-69
2022/10/27 05:26:23;;;;;;;3.75;3.42;;;;;;;12.47;97.11;100688.53;5094839;28;20034;-70
2022/10/27 05:28:52;;;;;;;5.85;4.00;;;;;;;12.45;96.98;100691.06;5094518;28;20139;-69
2022/10/27 05:31:21;;;;;;;3.90;3.08;;;;;;;12.46;96.90;100691.94;5093996;28;20036;-69
2022/10/27 05:33:49;;;;;;;2.90;2.42;;;;;;;12.47;97.19;100698.78;5094653;28;20044;-69
2022/10/27 05:36:18;;;;;;;6.25;5.65;;;;;;;12.47;97.03;100709.03;5094135;28;20036;-69
2022/10/27 05:38:47;;;;;;;7.47;4.07;;;;;;;12.41;96.94;100703.84;5094366;28;20578;-69
2022/10/27 05:41:17;;;;;;;5.25;4.57;;;;;;;12.43;97.23;100702.16;5094049;28;20048;-69
2022/10/27 05:43:48;;;;;;;2.28;2.08;;;;;;;12.42;97.11;100710.69;5094224;28;20040;-69
2022/10/27 05:46:16;;;;;;;5.10;3.53;;;;;;;12.43;97.04;100708.13;5093989;28;20097;-69
2022/10/27 05:48:45;;;;;;;4.22;3.83;;;;;;;12.44;97.36;100716.66;5093547;28;20508;-69
2022/10/27 05:51:13;;;;;;;4.10;2.42;;;;;;;12.43;97.20;100714.97;5094196;28;20152;-69
2022/10/27 05:53:50;;;;;;;4.05;2.95;;;;;;;12.42;97.49;100720.94;5094135;28;20047;-69
2022/10/27 05:56:19;;;;;;;2.20;1.98;;;;;;;12.41;97.10;100714.94;5094414;28;20108;-69
2022/10/27 05:58:49;;;;;;;5.25;3.70;;;;;;;12.42;97.31;100710.69;5093469;28;20036;-69
2022/10/27 06:01:17;;;;;;;2.72;2.50;;;;;;;12.35;97.57;100703.78;5093906;28;20395;-69
2022/10/27 06:03:46;;;;;;;3.40;2.97;;;;;;;12.45;97.52;100720.97;5093719;28;20067;-69
2022/10/27 06:06:15;;;;;;;5.22;2.53;;;;;;;12.39;97.48;100720.88;5093706;28;20111;-69
2022/10/27 06:08:43;;;;;;;4.78;2.40;;;;;;;12.37;97.55;100727.69;5093663;28;20047;-69
2022/10/27 06:11:12;;;;;;;4.55;3.17;;;;;;;12.37;97.66;100727.69;5094134;28;20063;-69
2022/10/27 06:13:40;;;;;;;2.78;2.58;;;;;;;12.32;97.60;100720.00;5094115;28;20083;-69
2022/10/27 06:16:10;;;;;;;7.07;4.50;;;;;;;12.41;97.52;100730.31;5094097;28;20434;-69
2022/10/27 06:18:41;;;;;;;14.13;8.43;;;;;;;12.44;97.74;100739.72;5093893;28;20075;-69
2022/10/27 06:21:09;;;;;;;12.70;8.25;;;;;;;12.49;97.88;100745.75;5093460;28;20513;-69
2022/10/27 06:23:40;;;;;;;6.28;5.45;;;;;;;12.51;97.71;100744.91;5093811;28;20036;-69
2022/10/27 06:26:10;;;;;;;6.40;3.90;;;;;;;12.56;97.62;100744.94;5093625;28;20047;-69
2022/10/27 06:28:39;;;;;;;9.25;5.20;;;;;;;12.58;97.66;100748.38;5093553;28;20486;-69
2022/10/27 06:31:08;;;;;;;2.97;2.60;;;;;;;12.58;97.58;100749.22;5093636;28;20113;-69
2022/10/27 06:33:37;;;;;;;8.93;2.85;;;;;;;12.57;97.84;100747.50;5093669;28;20570;-70
2022/10/27 06:36:07;;;;;;;2.97;1.77;;;;;;;12.57;97.57;100755.19;5086890;28;20397;-69
2022/10/27 06:38:35;;;;;;;9.02;5.40;;;;;;;12.57;97.78;100757.75;5073252;28;20041;-69
2022/10/27 06:41:07;;;;;;;3.80;2.58;;;;;;;12.61;97.77;100758.66;5073516;28;20044;-69
2022/10/27 06:43:36;;;;;;;7.50;4.47;;;;;;;12.61;97.80;100758.66;5073055;28;20036;-69
2022/10/27 06:46:05;;;;;;;3.72;3.00;;;;;;;12.62;97.75;100760.38;5073489;28;20117;-69
2022/10/27 06:48:34;;;;;;;8.47;3.80;;;;;;;12.54;97.86;100747.50;5073061;28;20040;-69
2022/10/27 06:51:04;;;;;;;4.07;3.37;;;;;;;12.64;97.84;100768.94;5073093;28;20495;-70
2022/10/27 06:53:32;;;;;;;8.02;4.70;;;;;;;12.63;98.12;100767.19;5089177;28;20101;-69
2022/10/27 06:56:01;;;;;;;4.45;3.08;;;;;;;12.63;97.82;100778.31;5093478;28;20097;-70
2022/10/27 06:58:29;;;;;;;4.15;3.75;;;;;;;12.67;97.93;100774.06;5094042;28;20055;-69
2022/10/27 07:01:00;;;;;;;3.40;2.55;;;;;;;12.73;97.82;100784.38;5097314;28;20075;-69
2022/10/27 07:03:30;;;;;;;4.47;3.63;;;;;;;12.69;97.80;100782.63;5097036;28;20075;-69
2022/10/27 07:05:59;;;;;;;4.13;3.58;;;;;;;12.72;97.83;100782.63;5097248;28;20043;-70
2022/10/27 07:08:29;;;;;;;7.82;4.05;;;;;;;12.76;98.03;100784.41;5097376;28;20081;-69
2022/10/27 07:10:57;;;;;;;6.07;5.35;;;;;;;12.79;98.14;100781.84;5095856;28;20040;-69
2022/10/27 07:13:26;;;;;;;4.90;3.40;;;;;;;12.82;97.82;100789.56;5096919;28;20387;-69
2022/10/27 07:15:55;;;;;;;10.48;5.20;;;;;;;12.80;98.07;100783.56;5096655;28;20089;-69
2022/10/27 07:18:23;;;;;;;4.18;2.53;;;;;;;12.82;98.15;100794.69;5096428;28;20036;-69
2022/10/27 07:20:52;;;;;;;2.08;1.88;;;;;;;12.85;98.00;100794.72;5096563;28;20055;-69
2022/10/27 07:23:21;;;;;;;3.23;2.20;;;;;;;12.88;97.93;100794.75;5095586;28;20378;-70
2022/10/27 07:25:51;;;;;;;3.45;2.75;;;;;;;12.96;97.78;100803.31;5088411;28;20082;-69
2022/10/27 07:28:19;;;;;;;5.55;3.22;;;;;;;13.00;97.74;100799.97;5096846;28;20078;-69
2022/10/27 07:30:48;;;;;;;5.25;3.50;;;;;;;13.05;98.26;100800.81;5096484;28;20044;-69
2022/10/27 07:33:16;;;;;;;2.92;2.60;;;;;;;13.09;97.70;100800.06;5096441;28;20048;-69
2022/10/27 07:35:48;;;;;;;7.60;3.05;;;;;;;13.12;97.61;100804.34;5096571;28;20105;-69
2022/10/27 07:38:17;;;;;;;3.17;2.90;;;;;;;13.14;97.83;100805.22;5095818;28;20131;-70
2022/10/27 07:40:46;;;;;;;10.80;6.72;;;;;;;13.12;97.57;100805.22;5095381;28;20044;-70
2022/10/27 07:43:16;;;;;;;4.93;4.43;;;;;;;13.14;97.55;100800.09;5089857;28;20040;-69
2022/10/27 07:45:44;;;;;;;8.07;5.65;;;;;;;13.22;97.94;100803.56;5086360;28;20048;-69
2022/10/27 07:48:15;;;;;;;3.20;2.03;;;;;;;13.27;97.54;100814.69;5076394;28;21608;-69
2022/10/27 07:50:44;;;;;;;2.47;1.90;;;;;;;13.30;97.95;100809.59;5082851;28;20036;-69
2022/10/27 07:53:15;;;;;;;;;;;;;;;13.33;97.47;100815.59;5081751;28;20036;-69
2022/10/27 07:55:43;;;;;;;5.60;3.20;;;;;;;13.34;97.70;100803.66;5095441;28;19924;-69
2022/10/27 07:58:14;;;;;;;7.45;3.80;;;;;;;13.37;97.70;100811.34;5088135;28;20093;-69
2022/10/27 08:00:46;;;;;;;4.40;2.00;;;;;;;13.36;97.70;100809.63;5085152;28;20168;-69
2022/10/27 08:03:16;;;;;;;5.28;3.63;;;;;;;13.37;97.69;100809.63;5086463;28;20086;-69
2022/10/27 08:05:45;;;;;;;7.05;4.25;;;;;;;13.37;97.32;100807.06;5085338;28;20052;-70
2022/10/27 08:08:14;;;;;;;8.32;2.90;;;;;;;13.39;97.24;100817.31;5083993;28;20037;-70
2022/10/27 08:10:44;;;;;;;3.90;2.22;;;;;;;13.42;97.47;100810.53;5090599;28;20037;-69
2022/10/27 08:13:13;;;;;;;4.50;3.90;;;;;;;13.55;97.09;100820.84;5095769;28;20082;-69
2022/10/27 08:15:42;;;;;;;3.55;2.70;;;;;;;13.48;96.94;100806.28;5095797;28;20047;-70
2022/10/27 08:18:12;;;;;;;4.13;3.60;;;;;;;13.60;96.92;100819.16;5095886;28;20040;-69
2022/10/27 08:20:43;;;;;;;3.95;3.35;;;;;;;13.63;96.74;100819.19;5096025;28;20063;-69
2022/10/27 08:23:13;;;;;;;4.35;3.58;;;;;;;13.69;96.67;100824.34;5096122;28;20489;-70
2022/10/27 08:25:43;;;;;;;6.78;5.57;;;;;;;13.77;96.99;100832.94;5095695;28;20040;-69
2022/10/27 08:28:13;;;;;;;6.68;4.13;;;;;;;13.81;96.75;100824.41;5095393;28;20489;-69
2022/10/27 08:30:42;;;;;;;9.13;4.25;;;;;;;13.87;96.20;100834.69;5087149;28;20044;-69
2022/10/27 08:33:21;;;;;;;3.83;2.78;;;;;;;13.85;96.46;100829.56;5095095;28;20044;-69
2022/10/27 08:35:50;;;;;;;6.10;3.72;;;;;;;13.89;96.22;100838.13;5091455;28;20049;-69
2022/10/27 08:38:19;;;;;;;5.43;3.83;;;;;;;13.97;96.03;100831.31;5088660;28;20036;-69
2022/10/27 08:41:10;;;;;;;4.47;4.07;;;;;;;14.05;96.09;100832.22;5095668;28;20105;-69
2022/10/27 08:43:51;;;;;;;11.20;5.45;;;;;;;14.16;95.52;100837.38;5095574;28;20497;-69
2022/10/27 08:46:26;;;;;;;11.43;4.07;;;;;;;14.24;95.45;100839.13;5092281;28;20043;-69
2022/10/27 08:49:11;;;;;;;5.82;4.05;;;;;;;14.25;95.33;100838.28;5092139;28;20070;-69
2022/10/27 08:51:43;;;;;;;3.92;2.97;;;;;;;14.31;95.29;100843.44;5093971;28;20163;-69
2022/10/27 08:54:12;;;;;;;8.25;4.78;;;;;;;14.38;95.02;100834.91;5094968;28;20043;-69
2022/10/27 08:56:41;;;;;;;2.35;1.70;;;;;;;14.45;94.63;100840.91;5093496;28;20048;-72
2022/10/27 08:59:15;;;;;;;6.13;4.07;;;;;;;14.40;94.44;100838.34;5076174;28;20052;-69
2022/10/27 09:01:54;;;;;;;5.25;4.75;;;;;;;14.47;94.00;100840.06;5074536;28;20098;-71
2022/10/27 09:04:33;;;;;;;5.30;3.33;;;;;;;14.51;93.72;100836.66;5073487;28;20083;-69
2022/10/27 09:07:14;;;;;;;8.77;5.13;;;;;;;14.52;93.63;100842.63;5074377;28;20495;-70
2022/10/27 09:09:52;;;;;;;5.85;2.45;;;;;;;14.56;93.64;100844.38;5081839;28;20512;-69
2022/10/27 09:12:42;;;;;;;2.78;2.58;;;;;;;14.60;93.00;100846.94;5084282;28;20072;-69
2022/10/27 09:15:34;;;;;;;5.47;2.35;;;;;;;14.66;92.65;100846.94;5094448;28;20048;-69
2022/10/27 09:18:09;;;;;;;5.43;3.25;;;;;;;14.70;92.91;100842.69;5094574;28;20043;-69
2022/10/27 09:20:44;;;;;;;8.35;3.78;;;;;;;14.71;92.48;100837.53;5085501;28;20486;-69
2022/10/27 09:23:16;;;;;;;5.25;2.92;;;;;;;14.70;92.47;100848.69;5073786;28;20051;-69
2022/10/27 09:25:48;;;;;;;9.82;3.78;;;;;;;14.65;91.69;100845.25;5074010;28;20094;-69
2022/10/27 09:28:22;;;;;;;6.80;3.58;;;;;;;14.67;91.89;100840.97;5074250;28;20449;-69
2022/10/27 09:30:53;;;;;;;6.20;3.80;;;;;;;14.70;91.71;100843.53;5073857;28;20490;-70
2022/10/27 09:33:28;;;;;;;13.02;2.58;;;;;;;14.70;91.76;100833.25;5073841;28;20072;-69
2022/10/27 09:35:59;;;;;;;5.18;3.40;;;;;;;14.72;91.03;100849.53;5074711;28;20056;-69
2022/10/27 09:38:28;;;;;;;3.95;2.13;;;;;;;14.72;90.66;100841.81;5073787;28;20139;-69
2022/10/27 09:40:57;;;;;;;2.28;1.52;;;;;;;14.73;90.19;100842.69;5073817;28;20048;-69
2022/10/27 09:43:25;;;;;;;2.13;1.92;;;;;;;14.77;89.50;100829.84;5073717;28;20044;-69
2022/10/27 09:46:01;;;;;;;6.20;3.38;;;;;;;14.80;89.27;100834.13;5073746;28;20048;-70
2022/10/27 09:48:31;;;;;;;6.95;3.13;;;;;;;14.86;89.05;100838.38;5074014;28;20111;-69
2022/10/27 09:51:08;;;;;;;5.15;4.38;;;;;;;14.81;88.49;100838.38;5073664;28;20047;-69
2022/10/27 09:53:40;;;;;;;5.25;2.85;;;;;;;14.73;88.12;100848.66;5073604;28;20072;-70
2022/10/27 09:56:11;;;;;;;4.25;3.05;;;;;;;14.77;87.59;100844.41;5078284;28;20064;-70
2022/10/27 09:58:49;;;;;;;5.25;3.53;;;;;;;14.81;87.34;100842.66;5083543;28;20128;-70
2022/10/27 10:01:18;;;;;;;4.32;2.63;;;;;;;14.86;87.24;100838.38;5082351;28;20473;-70
2022/10/27 10:04:00;;;;;;;7.40;3.30;;;;;;;14.91;87.23;100844.41;5078862;28;20481;-71
2022/10/27 10:06:37;;;;;;;2.35;2.15;;;;;;;14.97;87.07;100839.28;5083243;28;20074;-71
2022/10/27 10:09:21;;;;;;;3.15;2.85;;;;;;;15.00;87.01;100839.25;5087171;28;20094;-69
2022/10/27 10:11:50;;;;;;;6.38;3.60;;;;;;;15.02;86.38;100840.13;5092167;28;20067;-69
2022/10/27 10:14:24;;;;;;;5.10;3.78;;;;;;;14.98;86.01;100833.25;5093506;28;20044;-69
2022/10/27 10:16:54;;;;;;;2.00;1.80;;;;;;;15.03;86.32;100846.97;5094253;28;20036;-70
2022/10/27 10:19:24;;;;;;;9.38;3.47;;;;;;;15.04;85.96;100851.28;5093643;28;20044;-69
2022/10/27 10:21:57;;;;;;;5.00;3.53;;;;;;;15.07;86.06;100843.56;5092832;28;20485;-70
2022/10/27 10:24:29;;;;;;;3.47;2.72;;;;;;;15.13;85.79;100841.84;5091445;28;20040;-69
2022/10/27 10:27:00;;;;;;;3.20;2.65;;;;;;;15.12;85.79;100832.41;5073445;28;20102;-69
2022/10/27 10:29:33;;;;;;;7.07;2.65;;;;;;;15.21;85.56;100844.41;5073321;28;20079;-69
2022/10/27 10:32:09;;;;;;;3.03;2.60;;;;;;;15.25;85.59;100843.53;5073200;28;20486;-69
2022/10/27 10:34:38;;;;;;;4.32;2.08;;;;;;;15.25;85.20;100843.53;5078427;28;20052;-70
2022/10/27 10:37:35;;;;;;;2.80;2.58;;;;;;;15.28;85.19;100848.69;5087963;28;20095;-69
2022/10/27 10:40:35;;;;;;;3.42;3.05;;;;;;;15.33;85.13;100844.41;5086259;28;20497;-70
2022/10/27 10:43:15;;;;;;;5.30;2.33;;;;;;;15.36;84.75;100841.78;5087276;28;20037;-69
2022/10/27 10:45:49;;;;;;;2.67;2.28;;;;;;;15.38;84.44;100847.78;5087067;28;20045;-70
2022/10/27 10:48:30;;;;;;;13.25;4.80;;;;;;;15.33;84.01;100846.97;5090868;28;20134;-70
2022/10/27 10:51:00;;;;;;;5.22;3.20;;;;;;;15.32;84.45;100840.09;5097588;28;20036;-70
2022/10/27 10:53:33;;;;;;;7.18;2.33;;;;;;;15.37;84.51;100843.53;5096969;28;20044;-69
2022/10/27 10:56:06;;;;;;;7.88;4.07;;;;;;;15.45;84.27;100841.84;5097519;28;20056;-69
2022/10/27 10:58:36;;;;;;;5.53;2.85;;;;;;;15.50;84.53;100840.09;5096950;28;20048;-70
2022/10/27 11:01:07;;;;;;;1.70;1.52;;;;;;;15.50;83.99;100829.78;5097762;28;20378;-69
2022/10/27 11:03:43;;;;;;;6.72;4.03;;;;;;;15.55;84.11;100833.22;5097415;28;20048;-69
2022/10/27 11:06:18;;;;;;;3.75;2.78;;;;;;;15.54;84.12;100831.50;5097537;28;20052;-69
2022/10/27 11:08:59;;;;;;;2.00;1.85;;;;;;;15.62;83.57;100837.47;5087626;28;20044;-70
2022/10/27 11:11:32;;;;;;;5.22;2.60;;;;;;;15.67;83.58;100838.31;5076537;28;20093;-70
2022/10/27 11:14:06;;;;;;;4.15;1.67;;;;;;;15.76;83.86;100847.75;5076425;28;20048;-70
2022/10/27 11:16:37;;;;;;;7.57;5.32;;;;;;;15.78;83.54;100836.59;5076930;28;20120;-70
2022/10/27 11:19:16;;;;;;;4.85;3.38;;;;;;;15.84;83.43;100841.72;5076487;28;20049;-70
2022/10/27 11:21:51;;;;;;;6.40;3.65;;;;;;;15.85;83.12;100843.44;5080582;28;20053;-70
2022/10/27 11:24:31;;;;;;;3.42;2.63;;;;;;;15.84;82.98;100840.84;5084609;28;20033;-70
2022/10/27 11:27:04;;;;;;;3.08;2.67;;;;;;;15.87;82.74;100833.97;5086065;28;20151;-69
2022/10/27 11:29:47;;;;;;;2.20;1.63;;;;;;;16.04;83.08;100837.34;5084421;28;20063;-70
2022/10/27 11:32:22;;;;;;;4.68;3.45;;;;;;;16.25;82.38;100833.81;5084903;28;20047;-70
2022/10/27 11:35:04;;;;;;;3.28;2.38;;;;;;;16.39;82.04;100828.56;5085036;28;20093;-70
2022/10/27 11:37:39;;;;;;;2.17;1.98;;;;;;;16.36;81.88;100832.03;5076349;28;20102;-69
2022/10/27 11:40:14;;;;;;;9.40;4.03;;;;;;;16.38;81.20;100830.31;5077659;28;20082;-70
2022/10/27 11:42:55;;;;;;;2.33;1.90;;;;;;;16.47;80.91;100830.25;5083772;28;20124;-70
2022/10/27 11:45:29;;;;;;;2.22;2.03;;;;;;;16.71;80.07;100824.09;5074927;28;20070;-70